Aviation Digital Data Service (ADDS)

Output produced by TAFs form (0000 UTC 26 May 2017)
found at http://aviationweather.gov/adds/tafs/
 
KSAF 252330Z 2600/2624 26026G38KT P6SM SCT150 SCT250 
     FM260200 26011KT P6SM SCT150 SCT250 
     FM261000 35007KT P6SM SCT250 
     FM261900 24015G25KT P6SM SCT150